»·PEaware :: N612SR KPGA-KTEX

N612SR :: KPGA-KTEX

FLIGHT INFORMATION

Flight Status: Arrived
Operator: Privately registered:
United States
More flights under this callsign
Pilot: Rod T. (6553)
Aircraft: CIRRUS SR-22
(SR22)
More flights by this aircraft type
Origin: KPGA Page Mun
United States
Destination: KTEX Telluride Regl
United States
More flights between these airports :: More routes between these airports
Route: PGA DVC ETL
File this flight plan on PilotEdge
Remarks:
Altitude:
(Current/Filed)
13,000ft
Speed:
(Current/Filed)
185kts
Departed: 06-Jan-17 08:22 AM
Arrived: 06-Jan-17 09:30 AM
Distance/Time
Traveled:
180nm/1:08
Distance/Time
To Go:
Arrived

Flight Plot

Page will automatically refresh every two minutes.


Map Options




Map Legend


Flown Route
Filed Route
Departure Airport
Arrival Airport
Navaid (VOR, NDB)
Fix

Horizontal Profiles

Position Reports

Time Latitude Longitude Heading Altitude Ground
Speed
06-Jan-17 07:59 36.924910 -111.451554 247 4314ft 0kts
06-Jan-17 08:00 36.924910 -111.451554 247 4314ft 0kts
06-Jan-17 08:01 36.924910 -111.451554 247 4314ft 0kts
06-Jan-17 08:02 36.924910 -111.451554 247 4314ft 0kts
06-Jan-17 08:03 36.924910 -111.451554 247 4314ft 0kts
06-Jan-17 08:04 36.924905 -111.451569 247 4314ft 0kts
06-Jan-17 08:13 36.924953 -111.451376 260 4314ft 0kts
06-Jan-17 08:14 36.924953 -111.451376 260 4314ft 0kts
06-Jan-17 08:15 36.924953 -111.451376 260 4314ft 0kts
06-Jan-17 08:16 36.924952 -111.451381 263 4314ft 0kts
06-Jan-17 08:17 36.925008 -111.449303 131 4314ft 14kts
06-Jan-17 08:18 36.919164 -111.447650 170 4314ft 27kts
06-Jan-17 08:19 36.917167 -111.447480 116 4314ft 0kts
06-Jan-17 08:20 36.917167 -111.447480 116 4314ft 0kts
06-Jan-17 08:21 36.917167 -111.447480 116 4314ft 0kts
06-Jan-17 08:22 36.918887 -111.446532 349 4314ft 58kts
06-Jan-17 08:23 36.944469 -111.443653 59 5012ft 125kts
06-Jan-17 08:24 36.956719 -111.402774 68 6134ft 130kts
06-Jan-17 08:25 36.968535 -111.359272 68 7220ft 133kts
06-Jan-17 08:26 36.979213 -111.314851 66 8277ft 134kts
06-Jan-17 08:27 36.993941 -111.270555 61 8996ft 157kts
06-Jan-17 08:28 37.011392 -111.221879 61 10100ft 134kts
06-Jan-17 08:29 37.026582 -111.179307 60 11141ft 135kts
06-Jan-17 08:30 37.041955 -111.136590 60 12159ft 135kts
06-Jan-17 08:31 37.057139 -111.093527 59 12987ft 143kts
06-Jan-17 08:32 37.075050 -111.043815 60 12990ft 165kts
06-Jan-17 08:33 37.094197 -110.990341 59 12987ft 171kts
06-Jan-17 08:34 37.113285 -110.936792 59 12993ft 172kts
06-Jan-17 08:35 37.132644 -110.882276 59 12993ft 171kts
06-Jan-17 08:36 37.151881 -110.828155 59 12992ft 171kts
06-Jan-17 08:37 37.171160 -110.774010 59 12992ft 171kts
06-Jan-17 08:38 37.190417 -110.719852 59 12992ft 171kts
06-Jan-17 08:39 37.209607 -110.665762 59 12992ft 170kts
06-Jan-17 08:40 37.227024 -110.621545 64 12787ft 186kts
06-Jan-17 08:41 37.248365 -110.562370 65 12780ft 186kts
06-Jan-17 08:42 37.269380 -110.502871 65 12780ft 186kts
06-Jan-17 08:43 37.290338 -110.443380 65 12780ft 186kts
06-Jan-17 08:44 37.311357 -110.383598 65 12780ft 187kts
06-Jan-17 08:45 37.332242 -110.324080 66 12780ft 187kts
06-Jan-17 08:46 37.353159 -110.264354 66 12780ft 187kts
06-Jan-17 08:47 37.374018 -110.204674 66 12780ft 187kts
06-Jan-17 08:48 37.394880 -110.144867 66 12780ft 187kts
06-Jan-17 08:49 37.415668 -110.085151 66 12780ft 187kts
06-Jan-17 08:50 37.430838 -110.041501 66 12924ft 177kts
06-Jan-17 08:51 37.446577 -109.996131 66 13920ft 156kts
06-Jan-17 08:52 37.465381 -109.941858 66 13916ft 178kts
06-Jan-17 08:53 37.485559 -109.883477 66 13915ft 184kts
06-Jan-17 08:54 37.506027 -109.824162 66 13914ft 185kts
06-Jan-17 08:55 37.526608 -109.764449 66 13914ft 186kts
06-Jan-17 08:56 37.547118 -109.704749 66 13914ft 186kts
06-Jan-17 08:57 37.567653 -109.644880 66 13914ft 186kts
06-Jan-17 08:58 37.588121 -109.585084 66 13914ft 186kts
06-Jan-17 08:59 37.608596 -109.525153 66 13914ft 186kts
06-Jan-17 09:00 37.629074 -109.465087 66 13914ft 186kts
06-Jan-17 09:01 37.646921 -109.412626 66 13360ft 215kts
06-Jan-17 09:02 37.669826 -109.345193 67 12997ft 199kts
06-Jan-17 09:03 37.690970 -109.282783 67 12999ft 190kts
06-Jan-17 09:04 37.711418 -109.222309 66 13211ft 175kts
06-Jan-17 09:05 37.730020 -109.167181 67 13501ft 178kts
06-Jan-17 09:06 37.749819 -109.108396 67 13499ft 185kts
06-Jan-17 09:07 37.770016 -109.048316 67 13499ft 186kts
06-Jan-17 09:08 37.790302 -108.987841 67 13499ft 187kts
06-Jan-17 09:09 37.810588 -108.927119 67 13499ft 187kts
06-Jan-17 09:10 37.831195 -108.866779 66 13499ft 187kts
06-Jan-17 09:11 37.849429 -108.814213 66 13499ft 187kts
06-Jan-17 09:12 37.869353 -108.756827 66 13499ft 187kts
06-Jan-17 09:13 37.890296 -108.696286 66 13499ft 187kts
06-Jan-17 09:14 37.911153 -108.635863 66 13499ft 188kts
06-Jan-17 09:15 37.932039 -108.575270 66 13499ft 188kts
06-Jan-17 09:16 37.952850 -108.514727 66 13499ft 187kts
06-Jan-17 09:17 37.973627 -108.454005 66 13499ft 188kts
06-Jan-17 09:18 37.994390 -108.393299 66 13499ft 188kts
06-Jan-17 09:19 38.015480 -108.331514 66 13168ft 202kts
06-Jan-17 09:20 38.037492 -108.266767 69 12997ft 194kts
06-Jan-17 09:21 38.028842 -108.201118 103 13000ft 189kts
06-Jan-17 09:22 38.009456 -108.141269 119 12998ft 178kts
06-Jan-17 09:23 37.990571 -108.083769 104 12531ft 178kts
06-Jan-17 09:24 37.963763 -108.032909 148 11803ft 188kts
06-Jan-17 09:25 37.925893 -107.992184 114 11471ft 172kts
06-Jan-17 09:26 37.909124 -107.936429 106 11259ft 164kts
06-Jan-17 09:27 37.927254 -107.895911 345 10609ft 171kts
06-Jan-17 09:28 37.945148 -107.936597 276 10017ft 109kts
06-Jan-17 09:29 37.958621 -107.931431 106 9312ft 93kts
06-Jan-17 09:30 37.953287 -107.906285 105 9080ft 40kts
06-Jan-17 09:31 37.954191 -107.902400 339 9080ft 6kts
06-Jan-17 09:32 37.954476 -107.902326 9 9080ft 0kts
06-Jan-17 09:33 37.954476 -107.902326 9 9080ft 0kts
06-Jan-17 09:34 37.954476 -107.902326 9 9080ft 0kts
06-Jan-17 09:35 37.954476 -107.902326 9 9080ft 0kts
06-Jan-17 09:36 37.954476 -107.902326 9 9080ft 0kts
06-Jan-17 09:37 37.954476 -107.902326 9 9080ft 0kts
06-Jan-17 09:38 37.954476 -107.902326 9 9080ft 0kts
06-Jan-17 09:39 37.954476 -107.902326 9 9080ft 0kts
06-Jan-17 09:40 37.954476 -107.902326 9 9080ft 0kts
06-Jan-17 09:41 37.954476 -107.902326 9 9080ft 0kts
06-Jan-17 09:42 37.954476 -107.902326 9 9080ft 0kts
06-Jan-17 09:43 37.954476 -107.902326 9 9080ft 0kts
06-Jan-17 09:44 37.954476 -107.902326 9 9080ft 0kts
06-Jan-17 09:45 37.954476 -107.902326 9 9080ft 0kts

Navigation Log

Ident Type
Flight plan parsing failed, navigation log unavailable